Fort Ogden, Florida
Current Conditions -  °F | °C
As of 8:53 PM on Sunday 21 Dec 2014 (Local Time) from KPGD Reporting Station
Broken Clouds Broken Clouds  
Wind Chill: 67°   Ceiling: 11000
Heat Index: 67°   Visibility: 10mi
Dew Point: 65°   Wind: 0mph
Humidity: 93%   Direction: NA
Pressure: 30.05"   Gusts: NA
Location:  27.09°N, 81.95°W
Report Text: KPGD 220153Z AUTO 00000KT 10SM BKN110 19/18 A3005 RMK AO2 RAE12 SLP176 P0000 T01940183
Loading
Personal Weather Stations






























Interactive Weather Map New forecast layout! Learn more

10-Day Weather Forecast

Advertisements
Track Severe Weather on mobile